createdAt,value
2022-12-27T00:06:51.008Z,28.00
2022-12-27T00:17:03.974Z,26.90
2022-12-27T00:27:17.034Z,27.90
2022-12-27T00:37:30.004Z,23.00
2022-12-27T00:47:56.037Z,21.30
2022-12-27T00:58:09.026Z,20.10
2022-12-27T01:08:22.041Z,17.00
2022-12-27T01:18:35.032Z,19.40
2022-12-27T01:28:48.072Z,20.70
2022-12-27T01:39:01.028Z,20.30
2022-12-27T01:49:15.105Z,18.10
2022-12-27T01:59:28.068Z,17.10
2022-12-27T02:09:41.094Z,20.60
2022-12-27T02:20:09.067Z,20.30
2022-12-27T02:30:22.114Z,19.00
2022-12-27T02:40:54.081Z,17.20
2022-12-27T02:51:53.131Z,20.20
2022-12-27T03:02:46.194Z,19.10
2022-12-27T03:13:30.137Z,17.70
2022-12-27T03:24:02.097Z,12.80
2022-12-27T03:34:36.155Z,11.60
2022-12-27T03:44:49.119Z,10.20
2022-12-27T03:55:09.177Z,5.90
2022-12-27T04:05:22.131Z,4.50
2022-12-27T04:15:53.219Z,2.70
2022-12-27T04:26:25.182Z,5.00
2022-12-27T04:36:38.206Z,5.90
2022-12-27T04:47:09.158Z,8.30
2022-12-27T04:57:29.174Z,6.80
2022-12-27T05:08:00.193Z,7.50
2022-12-27T05:18:13.197Z,8.70
2022-12-27T05:28:26.200Z,8.20
2022-12-27T05:38:39.215Z,11.00
2022-12-27T05:48:52.227Z,8.00
2022-12-27T05:59:12.280Z,10.70
2022-12-27T06:09:25.253Z,9.70
2022-12-27T06:19:38.210Z,10.40
2022-12-27T06:29:51.272Z,9.70
2022-12-27T06:40:04.256Z,13.40
2022-12-27T06:50:17.269Z,10.70
2022-12-27T07:00:30.329Z,12.40
2022-12-27T07:10:44.278Z,12.80
2022-12-27T07:20:57.269Z,13.60
2022-12-27T07:31:40.321Z,13.70
2022-12-27T07:41:53.280Z,17.80
2022-12-27T07:52:06.295Z,16.80
2022-12-27T08:02:25.446Z,18.00
2022-12-27T08:12:38.304Z,22.20
2022-12-27T08:22:51.293Z,23.00
2022-12-27T08:33:04.363Z,16.90
2022-12-27T08:43:18.336Z,18.70
2022-12-27T08:53:31.352Z,16.40
2022-12-27T09:03:44.329Z,17.10
2022-12-27T09:13:57.365Z,18.10
2022-12-27T09:24:10.315Z,13.40
2022-12-27T09:34:23.387Z,17.70
2022-12-27T09:44:46.375Z,13.75
2022-12-27T09:55:09.385Z,13.10
2022-12-27T10:05:35.435Z,17.20
2022-12-27T10:15:55.424Z,15.30
2022-12-27T10:26:21.447Z,14.40
2022-12-27T10:36:36.428Z,16.90
2022-12-27T10:46:50.529Z,15.20
2022-12-27T10:57:37.431Z,16.00
2022-12-27T11:07:51.434Z,14.50
2022-12-27T11:18:09.436Z,32.10
2022-12-27T11:28:42.424Z,12.50
2022-12-27T11:38:57.453Z,13.00
2022-12-27T11:49:11.437Z,9.20
2022-12-27T11:59:54.465Z,19.40
2022-12-27T12:10:19.496Z,11.70
2022-12-27T12:21:10.486Z,8.80
2022-12-27T12:32:02.500Z,13.60
2022-12-27T12:42:26.499Z,13.50
2022-12-27T12:52:55.452Z,13.50
2022-12-27T13:03:35.574Z,17.80
2022-12-27T13:14:14.532Z,17.60
2022-12-27T13:24:40.473Z,9.80
2022-12-27T13:35:14.975Z,9.80
2022-12-27T13:45:49.576Z,12.30
2022-12-27T13:56:52.289Z,12.90
2022-12-27T14:07:27.520Z,12.40
2022-12-27T14:17:46.604Z,17.50
2022-12-27T14:28:19.539Z,14.00
2022-12-27T14:38:50.584Z,21.80
2022-12-27T14:49:18.550Z,14.10
2022-12-27T15:00:10.593Z,18.50
2022-12-27T15:10:48.568Z,20.30
2022-12-27T15:21:13.615Z,23.10
2022-12-27T15:31:37.570Z,23.90
2022-12-27T15:42:33.116Z,31.90
2022-12-27T15:53:08.590Z,31.70
2022-12-27T16:03:42.665Z,31.00
2022-12-27T16:13:57.611Z,34.30
2022-12-27T16:24:14.661Z,29.40
2022-12-27T16:34:33.618Z,32.00
2022-12-27T16:44:59.667Z,31.50
2022-12-27T16:55:35.644Z,29.00
2022-12-27T17:06:21.592Z,103.20
2022-12-27T17:16:20.677Z,32.20
2022-12-27T17:26:44.714Z,35.60
2022-12-27T17:37:28.640Z,34.00
2022-12-27T17:48:17.652Z,39.30
2022-12-27T17:58:30.696Z,31.80
2022-12-27T18:08:43.690Z,32.20
2022-12-27T18:18:59.728Z,34.70
2022-12-27T18:29:13.678Z,31.10
2022-12-27T18:39:39.752Z,29.00
2022-12-27T18:49:52.703Z,33.40
2022-12-27T19:00:22.749Z,32.90
2022-12-27T19:10:37.709Z,35.90
2022-12-27T19:20:50.768Z,35.90
2022-12-27T19:31:25.813Z,32.40
2022-12-27T19:41:39.796Z,33.40
2022-12-27T19:51:52.752Z,32.40
2022-12-27T20:02:05.915Z,30.80
2022-12-27T20:12:18.779Z,31.60
2022-12-27T20:22:31.800Z,35.20
2022-12-27T20:32:44.766Z,32.90
2022-12-27T20:42:57.842Z,37.90
2022-12-27T20:53:10.797Z,37.10
2022-12-27T21:03:30.859Z,33.20
2022-12-27T21:13:44.771Z,40.30
2022-12-27T21:23:57.984Z,37.10
2022-12-27T21:34:11.849Z,38.40
2022-12-27T21:44:24.811Z,35.90
2022-12-27T21:54:37.967Z,36.50
2022-12-27T22:04:50.846Z,32.80
2022-12-27T22:15:03.849Z,36.00
2022-12-27T22:25:17.850Z,37.20
2022-12-27T22:35:30.860Z,36.50
2022-12-27T22:45:47.599Z,38.80
2022-12-27T22:56:09.885Z,38.60
2022-12-27T23:06:22.875Z,36.30
2022-12-27T23:16:35.891Z,37.80
2022-12-27T23:26:48.891Z,32.10
2022-12-27T23:37:00.893Z,30.10
2022-12-27T23:47:13.895Z,30.60
2022-12-27T23:57:33.928Z,28.90
